sensor_id;sensor_type;location;lat;lon;timestamp;P1;durP1;ratioP1;P2;durP2;ratioP2
79371;SDS011;68914;51.262;6.802;2023-05-10T00:00:15;15.35;;;6.68;;
79371;SDS011;68914;51.262;6.802;2023-05-10T00:01:16;14.97;;;6.50;;
79371;SDS011;68914;51.262;6.802;2023-05-10T00:02:17;15.55;;;6.70;;
79371;SDS011;68914;51.262;6.802;2023-05-10T00:03:18;16.10;;;6.65;;
79371;SDS011;68914;51.262;6.802;2023-05-10T00:04:18;14.30;;;6.60;;
79371;SDS011;68914;51.262;6.802;2023-05-10T00:05:19;15.27;;;6.75;;
79371;SDS011;68914;51.262;6.802;2023-05-10T00:06:20;18.63;;;7.03;;
79371;SDS011;68914;51.262;6.802;2023-05-10T00:07:20;15.90;;;6.77;;
79371;SDS011;68914;51.262;6.802;2023-05-10T00:08:21;15.75;;;6.35;;
79371;SDS011;68914;51.262;6.802;2023-05-10T00:09:22;14.70;;;6.53;;
79371;SDS011;68914;51.262;6.802;2023-05-10T00:10:22;16.20;;;6.70;;
79371;SDS011;68914;51.262;6.802;2023-05-10T00:11:23;15.13;;;6.07;;
79371;SDS011;68914;51.262;6.802;2023-05-10T00:12:24;16.10;;;6.50;;
79371;SDS011;68914;51.262;6.802;2023-05-10T00:13:24;15.63;;;6.87;;
79371;SDS011;68914;51.262;6.802;2023-05-10T00:14:25;16.08;;;6.60;;
79371;SDS011;68914;51.262;6.802;2023-05-10T00:15:26;16.60;;;6.97;;
79371;SDS011;68914;51.262;6.802;2023-05-10T00:16:26;16.63;;;6.93;;
79371;SDS011;68914;51.262;6.802;2023-05-10T00:17:27;18.13;;;7.43;;
79371;SDS011;68914;51.262;6.802;2023-05-10T00:18:27;15.20;;;6.43;;
79371;SDS011;68914;51.262;6.802;2023-05-10T00:19:28;17.75;;;7.00;;
79371;SDS011;68914;51.262;6.802;2023-05-10T00:20:29;16.27;;;6.40;;
79371;SDS011;68914;51.262;6.802;2023-05-10T00:21:29;17.98;;;7.45;;
79371;SDS011;68914;51.262;6.802;2023-05-10T00:22:30;17.77;;;7.17;;
79371;SDS011;68914;51.262;6.802;2023-05-10T00:23:31;18.40;;;7.53;;
79371;SDS011;68914;51.262;6.802;2023-05-10T00:24:32;17.88;;;7.40;;
79371;SDS011;68914;51.262;6.802;2023-05-10T00:25:33;16.93;;;7.27;;
79371;SDS011;68914;51.262;6.802;2023-05-10T00:26:33;18.15;;;7.38;;
79371;SDS011;68914;51.262;6.802;2023-05-10T00:27:34;17.20;;;7.03;;
79371;SDS011;68914;51.262;6.802;2023-05-10T00:28:35;14.97;;;6.37;;
79371;SDS011;68914;51.262;6.802;2023-05-10T00:29:36;15.50;;;6.80;;
79371;SDS011;68914;51.262;6.802;2023-05-10T00:30:37;18.65;;;7.05;;
79371;SDS011;68914;51.262;6.802;2023-05-10T00:31:38;17.00;;;7.17;;
79371;SDS011;68914;51.262;6.802;2023-05-10T00:32:38;16.95;;;6.88;;
79371;SDS011;68914;51.262;6.802;2023-05-10T00:33:39;17.80;;;7.60;;
79371;SDS011;68914;51.262;6.802;2023-05-10T00:34:39;17.53;;;7.10;;
79371;SDS011;68914;51.262;6.802;2023-05-10T00:35:40;19.00;;;7.63;;
79371;SDS011;68914;51.262;6.802;2023-05-10T00:36:41;16.63;;;7.32;;
79371;SDS011;68914;51.262;6.802;2023-05-10T00:37:42;18.35;;;7.20;;
79371;SDS011;68914;51.262;6.802;2023-05-10T00:38:42;16.53;;;7.10;;
79371;SDS011;68914;51.262;6.802;2023-05-10T00:39:43;17.08;;;7.30;;
79371;SDS011;68914;51.262;6.802;2023-05-10T00:40:45;16.33;;;7.00;;
79371;SDS011;68914;51.262;6.802;2023-05-10T00:41:53;16.07;;;7.13;;
79371;SDS011;68914;51.262;6.802;2023-05-10T00:42:54;14.68;;;6.90;;
79371;SDS011;68914;51.262;6.802;2023-05-10T00:43:55;15.07;;;6.75;;
79371;SDS011;68914;51.262;6.802;2023-05-10T00:44:57;14.80;;;6.80;;
79371;SDS011;68914;51.262;6.802;2023-05-10T00:45:58;13.88;;;6.43;;
79371;SDS011;68914;51.262;6.802;2023-05-10T00:46:58;13.50;;;6.20;;
79371;SDS011;68914;51.262;6.802;2023-05-10T00:48:00;13.70;;;5.80;;
79371;SDS011;68914;51.262;6.802;2023-05-10T00:49:02;13.88;;;6.00;;
79371;SDS011;68914;51.262;6.802;2023-05-10T00:50:04;12.30;;;5.35;;
79371;SDS011;68914;51.262;6.802;2023-05-10T00:51:05;14.20;;;5.97;;
79371;SDS011;68914;51.262;6.802;2023-05-10T00:52:06;14.25;;;6.25;;
79371;SDS011;68914;51.262;6.802;2023-05-10T00:53:07;14.20;;;6.13;;
79371;SDS011;68914;51.262;6.802;2023-05-10T00:54:10;13.82;;;5.88;;
79371;SDS011;68914;51.262;6.802;2023-05-10T00:55:12;14.35;;;5.80;;
79371;SDS011;68914;51.262;6.802;2023-05-10T00:56:13;14.18;;;5.80;;
79371;SDS011;68914;51.262;6.802;2023-05-10T00:57:14;11.17;;;5.30;;
79371;SDS011;68914;51.262;6.802;2023-05-10T00:58:15;12.80;;;5.68;;
79371;SDS011;68914;51.262;6.802;2023-05-10T00:59:16;12.48;;;5.43;;
79371;SDS011;68914;51.262;6.802;2023-05-10T01:00:18;12.90;;;5.50;;
79371;SDS011;68914;51.262;6.802;2023-05-10T01:01:19;12.32;;;5.63;;
79371;SDS011;68914;51.262;6.802;2023-05-10T01:02:19;12.45;;;5.82;;
79371;SDS011;68914;51.262;6.802;2023-05-10T01:03:20;13.40;;;6.07;;
79371;SDS011;68914;51.262;6.802;2023-05-10T01:04:22;13.25;;;6.18;;
79371;SDS011;68914;51.262;6.802;2023-05-10T01:05:25;13.25;;;5.70;;
79371;SDS011;68914;51.262;6.802;2023-05-10T01:06:27;12.63;;;5.55;;
79371;SDS011;68914;51.262;6.802;2023-05-10T01:07:28;13.20;;;5.95;;
79371;SDS011;68914;51.262;6.802;2023-05-10T01:08:54;12.68;;;5.78;;
79371;SDS011;68914;51.262;6.802;2023-05-10T01:10:20;13.25;;;5.13;;
79371;SDS011;68914;51.262;6.802;2023-05-10T01:11:46;12.53;;;5.10;;
79371;SDS011;68914;51.262;6.802;2023-05-10T01:13:12;12.82;;;5.20;;
79371;SDS011;68914;51.262;6.802;2023-05-10T01:14:13;12.02;;;5.22;;
79371;SDS011;68914;51.262;6.802;2023-05-10T01:15:17;13.25;;;5.50;;
79371;SDS011;68914;51.262;6.802;2023-05-10T01:16:19;13.77;;;5.80;;
79371;SDS011;68914;51.262;6.802;2023-05-10T01:17:19;12.85;;;5.55;;
79371;SDS011;68914;51.262;6.802;2023-05-10T01:18:21;13.23;;;5.77;;
79371;SDS011;68914;51.262;6.802;2023-05-10T01:19:23;14.40;;;6.15;;
79371;SDS011;68914;51.262;6.802;2023-05-10T01:20:35;13.07;;;5.95;;
79371;SDS011;68914;51.262;6.802;2023-05-10T01:21:48;14.45;;;6.10;;
79371;SDS011;68914;51.262;6.802;2023-05-10T01:23:04;17.85;;;7.32;;
79371;SDS011;68914;51.262;6.802;2023-05-10T01:27:53;15.00;;;6.63;;
79371;SDS011;68914;51.262;6.802;2023-05-10T01:33:01;15.60;;;6.65;;
79371;SDS011;68914;51.262;6.802;2023-05-10T01:34:09;13.25;;;5.82;;
79371;SDS011;68914;51.262;6.802;2023-05-10T01:35:21;15.07;;;6.90;;
79371;SDS011;68914;51.262;6.802;2023-05-10T01:38:11;16.02;;;6.53;;
79371;SDS011;68914;51.262;6.802;2023-05-10T01:41:49;15.93;;;6.82;;
79371;SDS011;68914;51.262;6.802;2023-05-10T01:42:56;15.18;;;6.82;;
79371;SDS011;68914;51.262;6.802;2023-05-10T01:45:22;14.70;;;6.35;;
79371;SDS011;68914;51.262;6.802;2023-05-10T01:46:35;14.32;;;6.35;;
79371;SDS011;68914;51.262;6.802;2023-05-10T01:47:42;14.32;;;6.18;;
79371;SDS011;68914;51.262;6.802;2023-05-10T01:48:47;11.75;;;5.70;;
79371;SDS011;68914;51.262;6.802;2023-05-10T01:49:52;14.73;;;6.47;;
79371;SDS011;68914;51.262;6.802;2023-05-10T01:50:55;13.10;;;6.07;;
79371;SDS011;68914;51.262;6.802;2023-05-10T01:52:00;11.75;;;5.43;;
79371;SDS011;68914;51.262;6.802;2023-05-10T01:53:07;13.00;;;5.93;;
79371;SDS011;68914;51.262;6.802;2023-05-10T01:54:10;13.10;;;5.90;;
79371;SDS011;68914;51.262;6.802;2023-05-10T01:55:15;13.23;;;6.10;;
79371;SDS011;68914;51.262;6.802;2023-05-10T01:56:19;15.77;;;6.40;;
79371;SDS011;68914;51.262;6.802;2023-05-10T01:57:25;16.05;;;6.53;;
79371;SDS011;68914;51.262;6.802;2023-05-10T01:58:29;14.85;;;6.07;;
79371;SDS011;68914;51.262;6.802;2023-05-10T01:59:34;13.32;;;5.90;;
79371;SDS011;68914;51.262;6.802;2023-05-10T02:00:40;14.48;;;5.78;;
79371;SDS011;68914;51.262;6.802;2023-05-10T02:01:45;14.80;;;6.25;;
79371;SDS011;68914;51.262;6.802;2023-05-10T02:02:48;15.13;;;6.50;;
79371;SDS011;68914;51.262;6.802;2023-05-10T02:03:50;15.50;;;6.70;;
79371;SDS011;68914;51.262;6.802;2023-05-10T02:04:51;14.02;;;6.20;;
79371;SDS011;68914;51.262;6.802;2023-05-10T02:05:55;15.80;;;6.70;;
79371;SDS011;68914;51.262;6.802;2023-05-10T02:06:57;17.55;;;6.68;;
79371;SDS011;68914;51.262;6.802;2023-05-10T02:07:59;16.00;;;7.10;;
79371;SDS011;68914;51.262;6.802;2023-05-10T02:09:01;16.25;;;7.40;;
79371;SDS011;68914;51.262;6.802;2023-05-10T02:10:04;16.90;;;6.78;;
79371;SDS011;68914;51.262;6.802;2023-05-10T02:11:07;16.73;;;7.13;;
79371;SDS011;68914;51.262;6.802;2023-05-10T02:12:11;16.27;;;7.00;;
79371;SDS011;68914;51.262;6.802;2023-05-10T02:13:14;15.48;;;6.50;;
79371;SDS011;68914;51.262;6.802;2023-05-10T02:14:16;18.08;;;7.32;;
79371;SDS011;68914;51.262;6.802;2023-05-10T02:15:20;17.50;;;7.07;;
79371;SDS011;68914;51.262;6.802;2023-05-10T02:16:23;16.00;;;7.27;;
79371;SDS011;68914;51.262;6.802;2023-05-10T02:17:27;18.40;;;7.70;;
79371;SDS011;68914;51.262;6.802;2023-05-10T02:18:29;17.17;;;7.10;;
79371;SDS011;68914;51.262;6.802;2023-05-10T02:19:32;16.50;;;7.20;;
79371;SDS011;68914;51.262;6.802;2023-05-10T02:20:35;16.33;;;7.35;;
79371;SDS011;68914;51.262;6.802;2023-05-10T02:21:38;18.67;;;7.55;;
79371;SDS011;68914;51.262;6.802;2023-05-10T02:22:40;18.10;;;7.35;;
79371;SDS011;68914;51.262;6.802;2023-05-10T02:23:42;16.17;;;6.82;;
79371;SDS011;68914;51.262;6.802;2023-05-10T02:24:43;18.27;;;7.28;;
79371;SDS011;68914;51.262;6.802;2023-05-10T02:25:47;16.77;;;7.70;;
79371;SDS011;68914;51.262;6.802;2023-05-10T02:26:49;17.90;;;7.77;;
79371;SDS011;68914;51.262;6.802;2023-05-10T02:27:54;16.45;;;7.05;;
79371;SDS011;68914;51.262;6.802;2023-05-10T02:28:56;16.90;;;7.32;;
79371;SDS011;68914;51.262;6.802;2023-05-10T02:29:58;17.27;;;7.53;;
79371;SDS011;68914;51.262;6.802;2023-05-10T02:31:00;16.50;;;7.80;;
79371;SDS011;68914;51.262;6.802;2023-05-10T02:32:01;17.50;;;7.60;;
79371;SDS011;68914;51.262;6.802;2023-05-10T02:33:04;16.15;;;7.00;;
79371;SDS011;68914;51.262;6.802;2023-05-10T02:34:06;18.00;;;7.80;;
79371;SDS011;68914;51.262;6.802;2023-05-10T02:35:09;18.50;;;7.45;;
79371;SDS011;68914;51.262;6.802;2023-05-10T02:36:11;17.45;;;7.38;;
79371;SDS011;68914;51.262;6.802;2023-05-10T02:37:14;16.17;;;6.90;;
79371;SDS011;68914;51.262;6.802;2023-05-10T02:38:16;19.60;;;8.13;;
79371;SDS011;68914;51.262;6.802;2023-05-10T02:39:19;18.50;;;8.07;;
79371;SDS011;68914;51.262;6.802;2023-05-10T02:40:21;17.75;;;7.60;;
79371;SDS011;68914;51.262;6.802;2023-05-10T02:41:24;16.95;;;7.45;;
79371;SDS011;68914;51.262;6.802;2023-05-10T02:42:26;17.17;;;7.05;;
79371;SDS011;68914;51.262;6.802;2023-05-10T02:43:29;17.98;;;8.02;;
79371;SDS011;68914;51.262;6.802;2023-05-10T02:44:33;17.15;;;7.03;;
79371;SDS011;68914;51.262;6.802;2023-05-10T02:45:36;16.38;;;7.13;;
79371;SDS011;68914;51.262;6.802;2023-05-10T02:46:39;17.38;;;7.55;;
79371;SDS011;68914;51.262;6.802;2023-05-10T02:47:39;16.57;;;7.07;;
79371;SDS011;68914;51.262;6.802;2023-05-10T02:48:40;14.45;;;6.55;;
79371;SDS011;68914;51.262;6.802;2023-05-10T02:49:41;15.60;;;6.60;;
79371;SDS011;68914;51.262;6.802;2023-05-10T02:50:45;15.07;;;7.00;;
79371;SDS011;68914;51.262;6.802;2023-05-10T02:51:51;15.75;;;6.97;;
79371;SDS011;68914;51.262;6.802;2023-05-10T02:53:00;14.97;;;6.40;;
79371;SDS011;68914;51.262;6.802;2023-05-10T02:54:07;15.38;;;7.15;;
79371;SDS011;68914;51.262;6.802;2023-05-10T02:55:12;14.88;;;6.55;;
79371;SDS011;68914;51.262;6.802;2023-05-10T02:56:31;16.02;;;6.97;;
79371;SDS011;68914;51.262;6.802;2023-05-10T02:57:34;15.63;;;7.05;;
79371;SDS011;68914;51.262;6.802;2023-05-10T02:58:41;15.65;;;6.82;;
79371;SDS011;68914;51.262;6.802;2023-05-10T02:59:41;15.40;;;6.70;;
79371;SDS011;68914;51.262;6.802;2023-05-10T03:00:45;17.10;;;7.18;;
79371;SDS011;68914;51.262;6.802;2023-05-10T03:01:46;15.43;;;6.82;;
79371;SDS011;68914;51.262;6.802;2023-05-10T03:02:47;16.30;;;6.97;;
79371;SDS011;68914;51.262;6.802;2023-05-10T03:03:48;15.75;;;7.03;;
79371;SDS011;68914;51.262;6.802;2023-05-10T03:04:49;15.07;;;6.40;;
79371;SDS011;68914;51.262;6.802;2023-05-10T03:05:49;13.82;;;6.25;;
79371;SDS011;68914;51.262;6.802;2023-05-10T03:06:50;15.93;;;6.90;;
79371;SDS011;68914;51.262;6.802;2023-05-10T03:07:51;15.25;;;6.05;;
79371;SDS011;68914;51.262;6.802;2023-05-10T03:08:52;14.27;;;5.85;;
79371;SDS011;68914;51.262;6.802;2023-05-10T03:09:53;14.90;;;6.43;;
79371;SDS011;68914;51.262;6.802;2023-05-10T03:13:10;15.10;;;6.20;;
79371;SDS011;68914;51.262;6.802;2023-05-10T03:14:21;14.30;;;5.90;;
79371;SDS011;68914;51.262;6.802;2023-05-10T03:15:31;13.13;;;5.60;;
79371;SDS011;68914;51.262;6.802;2023-05-10T03:16:57;15.63;;;6.55;;
79371;SDS011;68914;51.262;6.802;2023-05-10T03:18:12;13.40;;;5.78;;
79371;SDS011;68914;51.262;6.802;2023-05-10T03:19:26;13.63;;;5.67;;
79371;SDS011;68914;51.262;6.802;2023-05-10T03:20:33;13.85;;;5.70;;
79371;SDS011;68914;51.262;6.802;2023-05-10T03:21:37;14.35;;;6.07;;
79371;SDS011;68914;51.262;6.802;2023-05-10T03:22:44;13.40;;;6.18;;
79371;SDS011;68914;51.262;6.802;2023-05-10T03:23:50;13.48;;;6.00;;
79371;SDS011;68914;51.262;6.802;2023-05-10T03:24:58;13.18;;;5.75;;
79371;SDS011;68914;51.262;6.802;2023-05-10T03:26:06;14.45;;;6.00;;
79371;SDS011;68914;51.262;6.802;2023-05-10T03:27:08;13.50;;;6.20;;
79371;SDS011;68914;51.262;6.802;2023-05-10T03:28:09;12.57;;;5.97;;
79371;SDS011;68914;51.262;6.802;2023-05-10T03:29:12;15.27;;;6.38;;
79371;SDS011;68914;51.262;6.802;2023-05-10T03:30:14;14.30;;;6.30;;
79371;SDS011;68914;51.262;6.802;2023-05-10T03:31:16;15.73;;;6.93;;
79371;SDS011;68914;51.262;6.802;2023-05-10T03:32:17;14.10;;;5.95;;
79371;SDS011;68914;51.262;6.802;2023-05-10T03:33:18;15.82;;;6.18;;
79371;SDS011;68914;51.262;6.802;2023-05-10T03:34:23;14.50;;;6.40;;
79371;SDS011;68914;51.262;6.802;2023-05-10T03:35:25;13.95;;;5.97;;
79371;SDS011;68914;51.262;6.802;2023-05-10T03:36:25;14.07;;;5.90;;
79371;SDS011;68914;51.262;6.802;2023-05-10T03:37:26;15.27;;;6.47;;
79371;SDS011;68914;51.262;6.802;2023-05-10T03:38:27;14.55;;;6.30;;
79371;SDS011;68914;51.262;6.802;2023-05-10T03:39:28;15.05;;;6.90;;
79371;SDS011;68914;51.262;6.802;2023-05-10T03:40:32;14.98;;;6.30;;
79371;SDS011;68914;51.262;6.802;2023-05-10T03:41:33;15.88;;;6.40;;
79371;SDS011;68914;51.262;6.802;2023-05-10T03:42:34;13.93;;;6.47;;
79371;SDS011;68914;51.262;6.802;2023-05-10T03:43:35;15.18;;;6.30;;
79371;SDS011;68914;51.262;6.802;2023-05-10T03:44:35;15.63;;;6.22;;
79371;SDS011;68914;51.262;6.802;2023-05-10T03:45:37;15.18;;;6.63;;
79371;SDS011;68914;51.262;6.802;2023-05-10T03:46:38;16.07;;;6.27;;
79371;SDS011;68914;51.262;6.802;2023-05-10T03:47:38;14.82;;;6.40;;
79371;SDS011;68914;51.262;6.802;2023-05-10T03:48:39;17.07;;;7.00;;
79371;SDS011;68914;51.262;6.802;2023-05-10T03:49:40;16.20;;;6.40;;
79371;SDS011;68914;51.262;6.802;2023-05-10T03:50:40;15.20;;;6.18;;
79371;SDS011;68914;51.262;6.802;2023-05-10T03:51:41;15.93;;;7.07;;
79371;SDS011;68914;51.262;6.802;2023-05-10T03:52:42;15.35;;;6.45;;
79371;SDS011;68914;51.262;6.802;2023-05-10T03:53:42;17.40;;;6.90;;
79371;SDS011;68914;51.262;6.802;2023-05-10T03:54:43;17.23;;;7.22;;
79371;SDS011;68914;51.262;6.802;2023-05-10T03:55:44;15.75;;;7.13;;
79371;SDS011;68914;51.262;6.802;2023-05-10T03:56:45;19.03;;;6.80;;
79371;SDS011;68914;51.262;6.802;2023-05-10T03:57:48;17.75;;;7.40;;
79371;SDS011;68914;51.262;6.802;2023-05-10T03:58:49;19.17;;;7.00;;
79371;SDS011;68914;51.262;6.802;2023-05-10T03:59:51;17.60;;;7.95;;
79371;SDS011;68914;51.262;6.802;2023-05-10T04:00:52;19.38;;;7.78;;
79371;SDS011;68914;51.262;6.802;2023-05-10T04:01:52;18.97;;;7.73;;
79371;SDS011;68914;51.262;6.802;2023-05-10T04:02:53;18.15;;;7.60;;
79371;SDS011;68914;51.262;6.802;2023-05-10T04:03:54;16.98;;;7.18;;
79371;SDS011;68914;51.262;6.802;2023-05-10T04:04:55;18.07;;;7.87;;
79371;SDS011;68914;51.262;6.802;2023-05-10T04:05:59;17.30;;;8.10;;
79371;SDS011;68914;51.262;6.802;2023-05-10T04:07:02;18.88;;;8.15;;
79371;SDS011;68914;51.262;6.802;2023-05-10T04:08:03;21.97;;;8.90;;
79371;SDS011;68914;51.262;6.802;2023-05-10T04:09:04;20.00;;;8.57;;
79371;SDS011;68914;51.262;6.802;2023-05-10T04:10:06;22.30;;;8.98;;
79371;SDS011;68914;51.262;6.802;2023-05-10T04:11:08;20.23;;;8.70;;
79371;SDS011;68914;51.262;6.802;2023-05-10T04:12:10;19.15;;;8.50;;
79371;SDS011;68914;51.262;6.802;2023-05-10T04:13:10;20.20;;;8.43;;
79371;SDS011;68914;51.262;6.802;2023-05-10T04:14:11;20.98;;;8.40;;
79371;SDS011;68914;51.262;6.802;2023-05-10T04:15:12;21.98;;;8.40;;
79371;SDS011;68914;51.262;6.802;2023-05-10T04:16:12;20.33;;;8.43;;
79371;SDS011;68914;51.262;6.802;2023-05-10T04:17:13;19.73;;;8.80;;
79371;SDS011;68914;51.262;6.802;2023-05-10T04:18:13;20.33;;;8.77;;
79371;SDS011;68914;51.262;6.802;2023-05-10T04:19:14;22.23;;;9.02;;
79371;SDS011;68914;51.262;6.802;2023-05-10T04:20:15;23.00;;;9.00;;
79371;SDS011;68914;51.262;6.802;2023-05-10T04:21:16;20.90;;;8.55;;
79371;SDS011;68914;51.262;6.802;2023-05-10T04:22:16;19.88;;;8.82;;
79371;SDS011;68914;51.262;6.802;2023-05-10T04:23:17;21.33;;;9.33;;
79371;SDS011;68914;51.262;6.802;2023-05-10T04:24:18;20.27;;;9.17;;
79371;SDS011;68914;51.262;6.802;2023-05-10T04:25:18;23.53;;;9.83;;
79371;SDS011;68914;51.262;6.802;2023-05-10T04:26:19;20.27;;;9.17;;
79371;SDS011;68914;51.262;6.802;2023-05-10T04:27:20;21.05;;;8.60;;
79371;SDS011;68914;51.262;6.802;2023-05-10T04:28:21;24.48;;;9.93;;
79371;SDS011;68914;51.262;6.802;2023-05-10T04:29:22;21.70;;;9.10;;
79371;SDS011;68914;51.262;6.802;2023-05-10T04:30:22;24.67;;;9.50;;
79371;SDS011;68914;51.262;6.802;2023-05-10T04:31:23;20.90;;;8.77;;
79371;SDS011;68914;51.262;6.802;2023-05-10T04:32:24;24.85;;;10.10;;
79371;SDS011;68914;51.262;6.802;2023-05-10T04:33:24;21.27;;;8.80;;
79371;SDS011;68914;51.262;6.802;2023-05-10T04:34:25;22.33;;;9.15;;
79371;SDS011;68914;51.262;6.802;2023-05-10T04:35:26;23.13;;;9.98;;
79371;SDS011;68914;51.262;6.802;2023-05-10T04:36:27;22.85;;;9.50;;
79371;SDS011;68914;51.262;6.802;2023-05-10T04:37:27;25.73;;;10.10;;
79371;SDS011;68914;51.262;6.802;2023-05-10T04:38:28;22.63;;;9.43;;
79371;SDS011;68914;51.262;6.802;2023-05-10T04:39:29;25.10;;;10.07;;
79371;SDS011;68914;51.262;6.802;2023-05-10T04:40:30;23.10;;;9.43;;
79371;SDS011;68914;51.262;6.802;2023-05-10T04:41:30;23.33;;;9.38;;
79371;SDS011;68914;51.262;6.802;2023-05-10T04:42:31;25.30;;;10.03;;
79371;SDS011;68914;51.262;6.802;2023-05-10T04:43:32;25.00;;;9.75;;
79371;SDS011;68914;51.262;6.802;2023-05-10T04:44:33;21.67;;;9.43;;
79371;SDS011;68914;51.262;6.802;2023-05-10T04:45:34;25.92;;;10.32;;
79371;SDS011;68914;51.262;6.802;2023-05-10T04:46:34;23.23;;;10.07;;
79371;SDS011;68914;51.262;6.802;2023-05-10T04:47:35;26.35;;;9.93;;
79371;SDS011;68914;51.262;6.802;2023-05-10T04:48:37;24.45;;;10.10;;
79371;SDS011;68914;51.262;6.802;2023-05-10T04:49:37;24.77;;;10.33;;
79371;SDS011;68914;51.262;6.802;2023-05-10T04:50:39;22.95;;;10.07;;
79371;SDS011;68914;51.262;6.802;2023-05-10T04:51:39;25.90;;;10.85;;
79371;SDS011;68914;51.262;6.802;2023-05-10T04:52:40;25.47;;;10.13;;
79371;SDS011;68914;51.262;6.802;2023-05-10T04:53:41;23.55;;;9.90;;
79371;SDS011;68914;51.262;6.802;2023-05-10T04:54:41;25.27;;;10.67;;
79371;SDS011;68914;51.262;6.802;2023-05-10T04:55:42;24.88;;;10.35;;
79371;SDS011;68914;51.262;6.802;2023-05-10T04:56:43;26.55;;;10.02;;
79371;SDS011;68914;51.262;6.802;2023-05-10T04:57:43;25.33;;;10.60;;
79371;SDS011;68914;51.262;6.802;2023-05-10T04:58:45;25.83;;;10.52;;
79371;SDS011;68914;51.262;6.802;2023-05-10T04:59:46;25.42;;;10.73;;
79371;SDS011;68914;51.262;6.802;2023-05-10T05:00:46;24.47;;;10.27;;
79371;SDS011;68914;51.262;6.802;2023-05-10T05:01:47;25.60;;;10.57;;
79371;SDS011;68914;51.262;6.802;2023-05-10T05:02:48;25.63;;;10.97;;
79371;SDS011;68914;51.262;6.802;2023-05-10T05:03:48;25.27;;;10.90;;
79371;SDS011;68914;51.262;6.802;2023-05-10T05:04:49;23.58;;;10.00;;
79371;SDS011;68914;51.262;6.802;2023-05-10T05:05:50;27.23;;;10.97;;
79371;SDS011;68914;51.262;6.802;2023-05-10T05:06:50;26.80;;;10.73;;
79371;SDS011;68914;51.262;6.802;2023-05-10T05:07:51;26.60;;;10.53;;
79371;SDS011;68914;51.262;6.802;2023-05-10T05:08:52;25.70;;;11.40;;
79371;SDS011;68914;51.262;6.802;2023-05-10T05:09:53;26.80;;;11.38;;
79371;SDS011;68914;51.262;6.802;2023-05-10T05:10:54;25.98;;;11.18;;
79371;SDS011;68914;51.262;6.802;2023-05-10T05:11:55;31.00;;;11.40;;
79371;SDS011;68914;51.262;6.802;2023-05-10T05:12:55;25.08;;;10.68;;
79371;SDS011;68914;51.262;6.802;2023-05-10T05:13:56;27.40;;;11.57;;
79371;SDS011;68914;51.262;6.802;2023-05-10T05:14:59;30.10;;;12.15;;
79371;SDS011;68914;51.262;6.802;2023-05-10T05:16:00;27.50;;;11.75;;
79371;SDS011;68914;51.262;6.802;2023-05-10T05:17:03;26.38;;;10.55;;
79371;SDS011;68914;51.262;6.802;2023-05-10T05:18:04;24.35;;;10.45;;
79371;SDS011;68914;51.262;6.802;2023-05-10T05:19:04;27.10;;;11.20;;
79371;SDS011;68914;51.262;6.802;2023-05-10T05:20:05;26.67;;;11.25;;
79371;SDS011;68914;51.262;6.802;2023-05-10T05:21:13;25.98;;;11.27;;
79371;SDS011;68914;51.262;6.802;2023-05-10T05:22:17;25.50;;;10.82;;
79371;SDS011;68914;51.262;6.802;2023-05-10T05:23:19;28.05;;;11.52;;
79371;SDS011;68914;51.262;6.802;2023-05-10T05:24:21;29.00;;;11.88;;
79371;SDS011;68914;51.262;6.802;2023-05-10T05:25:21;27.90;;;11.33;;
79371;SDS011;68914;51.262;6.802;2023-05-10T05:26:22;26.15;;;11.45;;
79371;SDS011;68914;51.262;6.802;2023-05-10T05:27:23;29.67;;;11.93;;
79371;SDS011;68914;51.262;6.802;2023-05-10T05:28:24;25.27;;;11.40;;
79371;SDS011;68914;51.262;6.802;2023-05-10T05:29:25;26.83;;;10.88;;
79371;SDS011;68914;51.262;6.802;2023-05-10T05:30:26;24.67;;;10.50;;
79371;SDS011;68914;51.262;6.802;2023-05-10T05:31:26;25.48;;;10.73;;
79371;SDS011;68914;51.262;6.802;2023-05-10T05:32:27;24.75;;;10.75;;
79371;SDS011;68914;51.262;6.802;2023-05-10T05:33:28;23.13;;;10.57;;
79371;SDS011;68914;51.262;6.802;2023-05-10T05:34:28;24.23;;;10.52;;
79371;SDS011;68914;51.262;6.802;2023-05-10T05:35:29;24.03;;;10.17;;
79371;SDS011;68914;51.262;6.802;2023-05-10T05:36:30;22.70;;;10.32;;
79371;SDS011;68914;51.262;6.802;2023-05-10T05:37:31;23.67;;;10.15;;
79371;SDS011;68914;51.262;6.802;2023-05-10T05:38:32;23.10;;;10.13;;
79371;SDS011;68914;51.262;6.802;2023-05-10T05:39:33;21.10;;;9.90;;
79371;SDS011;68914;51.262;6.802;2023-05-10T05:40:33;22.80;;;10.33;;
79371;SDS011;68914;51.262;6.802;2023-05-10T05:41:34;22.73;;;10.60;;
79371;SDS011;68914;51.262;6.802;2023-05-10T05:42:35;21.83;;;9.90;;
79371;SDS011;68914;51.262;6.802;2023-05-10T05:43:35;19.87;;;9.20;;
79371;SDS011;68914;51.262;6.802;2023-05-10T05:44:36;21.13;;;9.85;;
79371;SDS011;68914;51.262;6.802;2023-05-10T05:45:37;21.33;;;9.73;;
79371;SDS011;68914;51.262;6.802;2023-05-10T05:46:38;22.27;;;9.30;;
79371;SDS011;68914;51.262;6.802;2023-05-10T05:47:39;19.08;;;8.90;;
79371;SDS011;68914;51.262;6.802;2023-05-10T05:48:40;20.95;;;9.23;;
79371;SDS011;68914;51.262;6.802;2023-05-10T05:49:40;20.27;;;9.00;;
79371;SDS011;68914;51.262;6.802;2023-05-10T05:50:41;20.43;;;9.40;;
79371;SDS011;68914;51.262;6.802;2023-05-10T05:51:42;18.27;;;9.30;;
79371;SDS011;68914;51.262;6.802;2023-05-10T05:52:43;22.45;;;9.23;;
79371;SDS011;68914;51.262;6.802;2023-05-10T05:53:43;21.70;;;9.80;;
79371;SDS011;68914;51.262;6.802;2023-05-10T05:54:44;21.02;;;9.68;;
79371;SDS011;68914;51.262;6.802;2023-05-10T05:55:54;22.50;;;9.73;;
79371;SDS011;68914;51.262;6.802;2023-05-10T05:56:57;20.85;;;9.48;;
79371;SDS011;68914;51.262;6.802;2023-05-10T05:57:58;21.52;;;8.85;;
79371;SDS011;68914;51.262;6.802;2023-05-10T05:58:59;21.25;;;9.20;;
79371;SDS011;68914;51.262;6.802;2023-05-10T05:59:59;20.13;;;9.40;;
79371;SDS011;68914;51.262;6.802;2023-05-10T06:01:00;22.42;;;9.63;;
79371;SDS011;68914;51.262;6.802;2023-05-10T06:02:01;21.48;;;9.20;;
79371;SDS011;68914;51.262;6.802;2023-05-10T06:03:02;21.73;;;9.17;;
79371;SDS011;68914;51.262;6.802;2023-05-10T06:04:03;21.75;;;9.25;;
79371;SDS011;68914;51.262;6.802;2023-05-10T06:05:03;23.23;;;9.95;;
79371;SDS011;68914;51.262;6.802;2023-05-10T06:06:04;22.97;;;10.10;;
79371;SDS011;68914;51.262;6.802;2023-05-10T06:07:05;22.33;;;10.13;;
79371;SDS011;68914;51.262;6.802;2023-05-10T06:08:06;25.48;;;10.20;;
79371;SDS011;68914;51.262;6.802;2023-05-10T06:09:06;22.10;;;9.30;;
79371;SDS011;68914;51.262;6.802;2023-05-10T06:10:07;25.25;;;10.32;;
79371;SDS011;68914;51.262;6.802;2023-05-10T06:11:08;24.08;;;9.90;;
79371;SDS011;68914;51.262;6.802;2023-05-10T06:12:09;21.43;;;9.23;;
79371;SDS011;68914;51.262;6.802;2023-05-10T06:13:10;21.20;;;9.77;;
79371;SDS011;68914;51.262;6.802;2023-05-10T06:14:10;21.73;;;9.63;;
79371;SDS011;68914;51.262;6.802;2023-05-10T06:15:11;24.40;;;10.23;;
79371;SDS011;68914;51.262;6.802;2023-05-10T06:16:12;22.70;;;9.93;;
79371;SDS011;68914;51.262;6.802;2023-05-10T06:17:13;22.63;;;10.07;;
79371;SDS011;68914;51.262;6.802;2023-05-10T06:18:14;23.50;;;9.50;;
79371;SDS011;68914;51.262;6.802;2023-05-10T06:19:15;22.50;;;10.05;;
79371;SDS011;68914;51.262;6.802;2023-05-10T06:20:15;23.13;;;10.50;;
79371;SDS011;68914;51.262;6.802;2023-05-10T06:21:16;25.85;;;10.52;;
79371;SDS011;68914;51.262;6.802;2023-05-10T06:22:17;24.02;;;10.45;;
79371;SDS011;68914;51.262;6.802;2023-05-10T06:23:18;25.53;;;10.70;;
79371;SDS011;68914;51.262;6.802;2023-05-10T06:24:18;21.33;;;9.33;;